sensor_id;sensor_type;location;lat;lon;timestamp;P1;durP1;ratioP1;P2;durP2;ratioP2
40945;SDS011;55635;50.264;11.918;2022-09-01T00:01:29;6.40;;;3.63;;
40945;SDS011;55635;50.264;11.918;2022-09-01T00:04:11;6.95;;;4.45;;
40945;SDS011;55635;50.264;11.918;2022-09-01T00:06:55;4.68;;;3.90;;
40945;SDS011;55635;50.264;11.918;2022-09-01T00:09:39;4.20;;;3.88;;
40945;SDS011;55635;50.264;11.918;2022-09-01T00:12:20;4.25;;;3.28;;
40945;SDS011;55635;50.264;11.918;2022-09-01T00:15:06;4.50;;;4.10;;
40945;SDS011;55635;50.264;11.918;2022-09-01T00:17:49;5.93;;;3.88;;
40945;SDS011;55635;50.264;11.918;2022-09-01T00:20:31;3.67;;;3.28;;
40945;SDS011;55635;50.264;11.918;2022-09-01T00:23:12;5.13;;;3.90;;
40945;SDS011;55635;50.264;11.918;2022-09-01T00:25:53;4.80;;;4.00;;
40945;SDS011;55635;50.264;11.918;2022-09-01T00:28:35;3.90;;;3.60;;
40945;SDS011;55635;50.264;11.918;2022-09-01T00:31:17;3.90;;;3.60;;
40945;SDS011;55635;50.264;11.918;2022-09-01T00:33:59;4.68;;;4.07;;
40945;SDS011;55635;50.264;11.918;2022-09-01T00:36:40;5.65;;;3.85;;
40945;SDS011;55635;50.264;11.918;2022-09-01T00:39:22;3.67;;;3.38;;
40945;SDS011;55635;50.264;11.918;2022-09-01T00:42:03;4.95;;;3.85;;
40945;SDS011;55635;50.264;11.918;2022-09-01T00:44:44;4.50;;;3.38;;
40945;SDS011;55635;50.264;11.918;2022-09-01T00:47:26;6.93;;;3.53;;
40945;SDS011;55635;50.264;11.918;2022-09-01T00:50:07;3.90;;;3.50;;
40945;SDS011;55635;50.264;11.918;2022-09-01T00:52:52;3.80;;;3.50;;
40945;SDS011;55635;50.264;11.918;2022-09-01T00:55:35;4.55;;;3.90;;
40945;SDS011;55635;50.264;11.918;2022-09-01T00:58:17;4.47;;;4.07;;
40945;SDS011;55635;50.264;11.918;2022-09-01T01:00:58;4.15;;;3.80;;
40945;SDS011;55635;50.264;11.918;2022-09-01T01:03:39;5.15;;;3.78;;
40945;SDS011;55635;50.264;11.918;2022-09-01T01:06:24;4.00;;;3.70;;
40945;SDS011;55635;50.264;11.918;2022-09-01T01:09:08;5.53;;;3.85;;
40945;SDS011;55635;50.264;11.918;2022-09-01T01:11:50;4.35;;;3.63;;
40945;SDS011;55635;50.264;11.918;2022-09-01T01:14:33;4.22;;;3.88;;
40945;SDS011;55635;50.264;11.918;2022-09-01T01:17:17;4.30;;;3.85;;
40945;SDS011;55635;50.264;11.918;2022-09-01T01:20:03;4.60;;;3.75;;
40945;SDS011;55635;50.264;11.918;2022-09-01T01:23:09;4.35;;;3.95;;
40945;SDS011;55635;50.264;11.918;2022-09-01T01:26:01;5.30;;;3.53;;
40945;SDS011;55635;50.264;11.918;2022-09-01T01:28:44;4.03;;;3.70;;
40945;SDS011;55635;50.264;11.918;2022-09-01T01:31:25;5.85;;;4.28;;
40945;SDS011;55635;50.264;11.918;2022-09-01T01:34:06;5.35;;;3.78;;
40945;SDS011;55635;50.264;11.918;2022-09-01T01:36:48;4.20;;;3.90;;
40945;SDS011;55635;50.264;11.918;2022-09-01T01:39:30;4.00;;;3.70;;
40945;SDS011;55635;50.264;11.918;2022-09-01T01:42:11;4.30;;;4.00;;
40945;SDS011;55635;50.264;11.918;2022-09-01T01:44:52;4.03;;;3.72;;
40945;SDS011;55635;50.264;11.918;2022-09-01T01:47:34;6.05;;;4.05;;
40945;SDS011;55635;50.264;11.918;2022-09-01T01:50:16;4.97;;;4.30;;
40945;SDS011;55635;50.264;11.918;2022-09-01T01:52:59;5.15;;;4.15;;
40945;SDS011;55635;50.264;11.918;2022-09-01T01:55:42;6.68;;;4.10;;
40945;SDS011;55635;50.264;11.918;2022-09-01T01:58:23;4.65;;;4.25;;
40945;SDS011;55635;50.264;11.918;2022-09-01T02:01:05;6.20;;;3.92;;
40945;SDS011;55635;50.264;11.918;2022-09-01T02:03:47;4.53;;;3.75;;
40945;SDS011;55635;50.264;11.918;2022-09-01T02:06:33;3.92;;;3.63;;
40945;SDS011;55635;50.264;11.918;2022-09-01T02:09:16;4.75;;;4.07;;
40945;SDS011;55635;50.264;11.918;2022-09-01T02:12:02;4.30;;;3.90;;
40945;SDS011;55635;50.264;11.918;2022-09-01T02:14:45;5.28;;;4.75;;
40945;SDS011;55635;50.264;11.918;2022-09-01T02:17:27;4.90;;;4.57;;
40945;SDS011;55635;50.264;11.918;2022-09-01T02:20:09;5.85;;;4.28;;
40945;SDS011;55635;50.264;11.918;2022-09-01T02:22:50;5.65;;;4.10;;
40945;SDS011;55635;50.264;11.918;2022-09-01T02:25:34;6.50;;;4.40;;
40945;SDS011;55635;50.264;11.918;2022-09-01T02:28:22;4.63;;;4.28;;
40945;SDS011;55635;50.264;11.918;2022-09-01T02:31:03;5.30;;;4.15;;
40945;SDS011;55635;50.264;11.918;2022-09-01T02:33:48;4.97;;;4.57;;
40945;SDS011;55635;50.264;11.918;2022-09-01T02:36:29;4.57;;;4.28;;
40945;SDS011;55635;50.264;11.918;2022-09-01T02:39:15;5.85;;;3.97;;
40945;SDS011;55635;50.264;11.918;2022-09-01T02:42:00;4.68;;;4.28;;
40945;SDS011;55635;50.264;11.918;2022-09-01T02:44:41;4.78;;;4.38;;
40945;SDS011;55635;50.264;11.918;2022-09-01T02:47:23;4.88;;;4.45;;
40945;SDS011;55635;50.264;11.918;2022-09-01T02:50:06;5.70;;;4.45;;
40945;SDS011;55635;50.264;11.918;2022-09-01T02:52:53;5.45;;;4.93;;
40945;SDS011;55635;50.264;11.918;2022-09-01T02:55:35;4.38;;;4.00;;
40945;SDS011;55635;50.264;11.918;2022-09-01T02:58:21;4.57;;;4.18;;
40945;SDS011;55635;50.264;11.918;2022-09-01T03:01:03;7.07;;;4.60;;
40945;SDS011;55635;50.264;11.918;2022-09-01T03:03:44;5.50;;;5.00;;
40945;SDS011;55635;50.264;11.918;2022-09-01T03:06:27;7.03;;;4.28;;
40945;SDS011;55635;50.264;11.918;2022-09-01T03:09:12;5.40;;;4.90;;
40945;SDS011;55635;50.264;11.918;2022-09-01T03:11:56;5.60;;;5.00;;
40945;SDS011;55635;50.264;11.918;2022-09-01T03:14:37;6.65;;;5.20;;
40945;SDS011;55635;50.264;11.918;2022-09-01T03:17:19;6.85;;;5.35;;
40945;SDS011;55635;50.264;11.918;2022-09-01T03:20:00;5.45;;;4.95;;
40945;SDS011;55635;50.264;11.918;2022-09-01T03:22:42;5.57;;;5.15;;
40945;SDS011;55635;50.264;11.918;2022-09-01T03:25:24;9.10;;;5.00;;
40945;SDS011;55635;50.264;11.918;2022-09-01T03:28:08;6.40;;;4.80;;
40945;SDS011;55635;50.264;11.918;2022-09-01T03:30:53;6.03;;;5.43;;
40945;SDS011;55635;50.264;11.918;2022-09-01T03:33:37;15.45;;;5.00;;
40945;SDS011;55635;50.264;11.918;2022-09-01T03:36:22;8.52;;;5.30;;
40945;SDS011;55635;50.264;11.918;2022-09-01T03:39:05;6.10;;;5.45;;
40945;SDS011;55635;50.264;11.918;2022-09-01T03:41:49;4.88;;;4.38;;
40945;SDS011;55635;50.264;11.918;2022-09-01T03:44:30;5.97;;;5.40;;
40945;SDS011;55635;50.264;11.918;2022-09-01T03:47:17;7.90;;;5.68;;
40945;SDS011;55635;50.264;11.918;2022-09-01T03:50:00;9.75;;;5.82;;
40945;SDS011;55635;50.264;11.918;2022-09-01T03:52:43;6.43;;;5.82;;
40945;SDS011;55635;50.264;11.918;2022-09-01T03:55:28;10.25;;;6.25;;
40945;SDS011;55635;50.264;11.918;2022-09-01T03:58:14;6.25;;;5.65;;
40945;SDS011;55635;50.264;11.918;2022-09-01T04:01:00;6.45;;;5.85;;
40945;SDS011;55635;50.264;11.918;2022-09-01T04:03:44;6.05;;;5.45;;
40945;SDS011;55635;50.264;11.918;2022-09-01T04:06:35;7.10;;;5.97;;
40945;SDS011;55635;50.264;11.918;2022-09-01T04:09:16;6.05;;;5.30;;
40945;SDS011;55635;50.264;11.918;2022-09-01T04:11:58;6.35;;;4.97;;
40945;SDS011;55635;50.264;11.918;2022-09-01T04:14:39;6.65;;;5.97;;
40945;SDS011;55635;50.264;11.918;2022-09-01T04:17:20;7.10;;;5.40;;
40945;SDS011;55635;50.264;11.918;2022-09-01T04:23:01;7.22;;;5.95;;
40945;SDS011;55635;50.264;11.918;2022-09-01T04:25:50;7.88;;;6.13;;
40945;SDS011;55635;50.264;11.918;2022-09-01T04:28:48;8.23;;;5.75;;
40945;SDS011;55635;50.264;11.918;2022-09-01T04:31:30;6.60;;;6.00;;
40945;SDS011;55635;50.264;11.918;2022-09-01T04:34:13;6.13;;;5.53;;
40945;SDS011;55635;50.264;11.918;2022-09-01T04:36:56;5.80;;;5.22;;
40945;SDS011;55635;50.264;11.918;2022-09-01T04:39:38;5.88;;;5.38;;
40945;SDS011;55635;50.264;11.918;2022-09-01T04:42:28;5.35;;;4.93;;
40945;SDS011;55635;50.264;11.918;2022-09-01T04:45:12;6.30;;;5.57;;
40945;SDS011;55635;50.264;11.918;2022-09-01T04:47:55;6.97;;;6.00;;
40945;SDS011;55635;50.264;11.918;2022-09-01T04:50:39;5.35;;;4.85;;
40945;SDS011;55635;50.264;11.918;2022-09-01T04:53:46;6.97;;;5.25;;
40945;SDS011;55635;50.264;11.918;2022-09-01T04:56:27;6.00;;;5.50;;
40945;SDS011;55635;50.264;11.918;2022-09-01T04:59:24;5.85;;;5.35;;
40945;SDS011;55635;50.264;11.918;2022-09-01T05:02:10;6.53;;;5.90;;
40945;SDS011;55635;50.264;11.918;2022-09-01T05:04:52;6.28;;;5.75;;
40945;SDS011;55635;50.264;11.918;2022-09-01T05:07:34;5.78;;;5.28;;
40945;SDS011;55635;50.264;11.918;2022-09-01T05:10:16;10.77;;;6.68;;
40945;SDS011;55635;50.264;11.918;2022-09-01T05:13:17;6.43;;;5.93;;
40945;SDS011;55635;50.264;11.918;2022-09-01T05:16:06;7.28;;;5.65;;
40945;SDS011;55635;50.264;11.918;2022-09-01T05:18:52;6.68;;;6.07;;
40945;SDS011;55635;50.264;11.918;2022-09-01T05:21:37;6.25;;;5.68;;
40945;SDS011;55635;50.264;11.918;2022-09-01T05:24:19;5.80;;;5.30;;
40945;SDS011;55635;50.264;11.918;2022-09-01T05:27:03;5.95;;;5.45;;
40945;SDS011;55635;50.264;11.918;2022-09-01T05:29:48;6.28;;;5.75;;
40945;SDS011;55635;50.264;11.918;2022-09-01T05:32:29;7.38;;;6.10;;
40945;SDS011;55635;50.264;11.918;2022-09-01T05:35:12;9.85;;;5.97;;
40945;SDS011;55635;50.264;11.918;2022-09-01T05:37:53;7.75;;;6.15;;
40945;SDS011;55635;50.264;11.918;2022-09-01T05:40:35;7.82;;;6.78;;
40945;SDS011;55635;50.264;11.918;2022-09-01T05:43:20;9.05;;;7.40;;
40945;SDS011;55635;50.264;11.918;2022-09-01T05:46:06;12.10;;;7.22;;
40945;SDS011;55635;50.264;11.918;2022-09-01T05:48:49;8.20;;;6.05;;
40945;SDS011;55635;50.264;11.918;2022-09-01T05:51:33;7.63;;;6.93;;
40945;SDS011;55635;50.264;11.918;2022-09-01T05:54:15;8.55;;;6.72;;
40945;SDS011;55635;50.264;11.918;2022-09-01T05:57:02;7.00;;;6.30;;
40945;SDS011;55635;50.264;11.918;2022-09-01T05:59:44;6.93;;;6.28;;
40945;SDS011;55635;50.264;11.918;2022-09-01T06:02:34;7.15;;;6.45;;
40945;SDS011;55635;50.264;11.918;2022-09-01T06:05:16;8.02;;;6.18;;
40945;SDS011;55635;50.264;11.918;2022-09-01T06:07:59;7.68;;;6.10;;
40945;SDS011;55635;50.264;11.918;2022-09-01T06:10:40;6.65;;;6.03;;
40945;SDS011;55635;50.264;11.918;2022-09-01T06:13:21;6.03;;;5.45;;
40945;SDS011;55635;50.264;11.918;2022-09-01T06:16:03;6.30;;;5.70;;
40945;SDS011;55635;50.264;11.918;2022-09-01T06:18:46;10.50;;;6.65;;
40945;SDS011;55635;50.264;11.918;2022-09-01T06:21:30;6.53;;;5.95;;
40945;SDS011;55635;50.264;11.918;2022-09-01T06:24:11;12.25;;;6.15;;
40945;SDS011;55635;50.264;11.918;2022-09-01T06:26:52;7.05;;;6.18;;
40945;SDS011;55635;50.264;11.918;2022-09-01T06:29:34;6.20;;;5.60;;
40945;SDS011;55635;50.264;11.918;2022-09-01T06:32:19;7.38;;;6.65;;
40945;SDS011;55635;50.264;11.918;2022-09-01T06:35:00;6.57;;;5.97;;
40945;SDS011;55635;50.264;11.918;2022-09-01T06:37:44;6.53;;;5.93;;
40945;SDS011;55635;50.264;11.918;2022-09-01T06:40:44;7.10;;;6.05;;
40945;SDS011;55635;50.264;11.918;2022-09-01T06:43:26;9.40;;;6.65;;
40945;SDS011;55635;50.264;11.918;2022-09-01T06:46:10;6.03;;;5.53;;
40945;SDS011;55635;50.264;11.918;2022-09-01T06:48:52;6.75;;;5.60;;
40945;SDS011;55635;50.264;11.918;2022-09-01T06:51:33;7.00;;;4.90;;
40945;SDS011;55635;50.264;11.918;2022-09-01T06:54:14;6.38;;;5.70;;
40945;SDS011;55635;50.264;11.918;2022-09-01T06:56:56;5.95;;;5.30;;
40945;SDS011;55635;50.264;11.918;2022-09-01T06:59:38;6.90;;;4.50;;
40945;SDS011;55635;50.264;11.918;2022-09-01T07:02:20;5.63;;;4.35;;
40945;SDS011;55635;50.264;11.918;2022-09-01T07:05:38;4.30;;;3.95;;
40945;SDS011;55635;50.264;11.918;2022-09-01T07:08:21;5.15;;;4.15;;
40945;SDS011;55635;50.264;11.918;2022-09-01T07:11:22;4.10;;;3.80;;
40945;SDS011;55635;50.264;11.918;2022-09-01T07:14:08;4.20;;;3.90;;
40945;SDS011;55635;50.264;11.918;2022-09-01T07:16:51;4.68;;;3.78;;
40945;SDS011;55635;50.264;11.918;2022-09-01T07:19:32;4.82;;;3.45;;
40945;SDS011;55635;50.264;11.918;2022-09-01T07:22:15;5.28;;;3.53;;
40945;SDS011;55635;50.264;11.918;2022-09-01T07:25:00;7.53;;;4.22;;
40945;SDS011;55635;50.264;11.918;2022-09-01T07:27:51;3.80;;;3.50;;
40945;SDS011;55635;50.264;11.918;2022-09-01T07:30:32;4.85;;;3.40;;
40945;SDS011;55635;50.264;11.918;2022-09-01T07:33:19;4.78;;;3.40;;
40945;SDS011;55635;50.264;11.918;2022-09-01T07:36:05;5.78;;;2.75;;
40945;SDS011;55635;50.264;11.918;2022-09-01T07:38:48;5.75;;;3.25;;
40945;SDS011;55635;50.264;11.918;2022-09-01T07:41:33;5.65;;;3.03;;
40945;SDS011;55635;50.264;11.918;2022-09-01T07:44:48;3.42;;;3.13;;
40945;SDS011;55635;50.264;11.918;2022-09-01T07:47:53;5.68;;;2.58;;
40945;SDS011;55635;50.264;11.918;2022-09-01T07:50:39;3.63;;;2.40;;
40945;SDS011;55635;50.264;11.918;2022-09-01T07:53:28;3.30;;;2.25;;
40945;SDS011;55635;50.264;11.918;2022-09-01T07:56:13;2.63;;;2.20;;
40945;SDS011;55635;50.264;11.918;2022-09-01T07:59:00;3.10;;;2.20;;
40945;SDS011;55635;50.264;11.918;2022-09-01T08:01:41;2.65;;;2.10;;
40945;SDS011;55635;50.264;11.918;2022-09-01T08:04:22;1.98;;;1.75;;
40945;SDS011;55635;50.264;11.918;2022-09-01T08:07:05;2.15;;;2.00;;
40945;SDS011;55635;50.264;11.918;2022-09-01T08:09:50;3.60;;;1.85;;
40945;SDS011;55635;50.264;11.918;2022-09-01T08:12:32;4.65;;;1.98;;
40945;SDS011;55635;50.264;11.918;2022-09-01T08:15:14;2.50;;;1.77;;
40945;SDS011;55635;50.264;11.918;2022-09-01T08:17:57;5.57;;;2.00;;
40945;SDS011;55635;50.264;11.918;2022-09-01T08:20:45;2.25;;;1.95;;
40945;SDS011;55635;50.264;11.918;2022-09-01T08:23:37;2.00;;;1.70;;
40945;SDS011;55635;50.264;11.918;2022-09-01T08:26:21;1.88;;;1.48;;
40945;SDS011;55635;50.264;11.918;2022-09-01T08:29:05;3.20;;;2.10;;
40945;SDS011;55635;50.264;11.918;2022-09-01T08:31:51;3.83;;;1.95;;
40945;SDS011;55635;50.264;11.918;2022-09-01T08:34:34;3.25;;;1.80;;
40945;SDS011;55635;50.264;11.918;2022-09-01T08:37:16;4.03;;;1.40;;
40945;SDS011;55635;50.264;11.918;2022-09-01T08:39:57;1.50;;;1.40;;
40945;SDS011;55635;50.264;11.918;2022-09-01T08:49:24;2.38;;;1.67;;
40945;SDS011;55635;50.264;11.918;2022-09-01T08:52:33;1.60;;;1.50;;
40945;SDS011;55635;50.264;11.918;2022-09-01T08:58:07;2.42;;;2.00;;
40945;SDS011;55635;50.264;11.918;2022-09-01T09:00:58;1.77;;;1.67;;
40945;SDS011;55635;50.264;11.918;2022-09-01T09:03:56;2.83;;;1.92;;
40945;SDS011;55635;50.264;11.918;2022-09-01T09:06:55;2.75;;;2.08;;
40945;SDS011;55635;50.264;11.918;2022-09-01T09:10:20;3.22;;;2.38;;
40945;SDS011;55635;50.264;11.918;2022-09-01T09:13:15;3.67;;;1.90;;
40945;SDS011;55635;50.264;11.918;2022-09-01T09:16:21;2.90;;;1.73;;
40945;SDS011;55635;50.264;11.918;2022-09-01T09:22:01;4.15;;;1.35;;
40945;SDS011;55635;50.264;11.918;2022-09-01T09:27:55;3.63;;;1.38;;
40945;SDS011;55635;50.264;11.918;2022-09-01T09:30:36;1.58;;;1.48;;
40945;SDS011;55635;50.264;11.918;2022-09-01T09:33:33;2.05;;;1.20;;
40945;SDS011;55635;50.264;11.918;2022-09-01T09:36:19;1.65;;;1.20;;
40945;SDS011;55635;50.264;11.918;2022-09-01T09:42:05;3.88;;;1.23;;
40945;SDS011;55635;50.264;11.918;2022-09-01T09:44:51;3.33;;;1.10;;
40945;SDS011;55635;50.264;11.918;2022-09-01T09:50:26;1.52;;;1.17;;
40945;SDS011;55635;50.264;11.918;2022-09-01T09:53:24;2.75;;;0.93;;
40945;SDS011;55635;50.264;11.918;2022-09-01T09:56:19;3.15;;;1.00;;
40945;SDS011;55635;50.264;11.918;2022-09-01T09:59:14;2.28;;;1.10;;
40945;SDS011;55635;50.264;11.918;2022-09-01T10:08:06;1.52;;;1.33;;
40945;SDS011;55635;50.264;11.918;2022-09-01T10:10:55;2.15;;;1.08;;
40945;SDS011;55635;50.264;11.918;2022-09-01T10:13:36;1.50;;;1.40;;
40945;SDS011;55635;50.264;11.918;2022-09-01T10:16:38;1.45;;;1.27;;
40945;SDS011;55635;50.264;11.918;2022-09-01T10:19:21;2.55;;;1.40;;
40945;SDS011;55635;50.264;11.918;2022-09-01T10:22:04;1.20;;;1.10;;
40945;SDS011;55635;50.264;11.918;2022-09-01T10:24:47;2.92;;;1.30;;
40945;SDS011;55635;50.264;11.918;2022-09-01T10:27:39;3.80;;;1.30;;
40945;SDS011;55635;50.264;11.918;2022-09-01T10:30:25;2.83;;;1.00;;
40945;SDS011;55635;50.264;11.918;2022-09-01T10:33:08;7.40;;;3.90;;
40945;SDS011;55635;50.264;11.918;2022-09-01T10:35:51;4.50;;;3.17;;
40945;SDS011;55635;50.264;11.918;2022-09-01T10:38:33;8.55;;;4.13;;
40945;SDS011;55635;50.264;11.918;2022-09-01T10:44:56;5.38;;;3.67;;
40945;SDS011;55635;50.264;11.918;2022-09-01T10:47:40;9.40;;;5.82;;
40945;SDS011;55635;50.264;11.918;2022-09-01T10:50:29;8.88;;;7.13;;
40945;SDS011;55635;50.264;11.918;2022-09-01T10:59:24;6.13;;;3.92;;
40945;SDS011;55635;50.264;11.918;2022-09-01T11:02:11;6.55;;;2.67;;
40945;SDS011;55635;50.264;11.918;2022-09-01T11:07:41;2.90;;;1.52;;
40945;SDS011;55635;50.264;11.918;2022-09-01T11:10:39;1.50;;;1.40;;
40945;SDS011;55635;50.264;11.918;2022-09-01T11:16:38;2.55;;;1.50;;
40945;SDS011;55635;50.264;11.918;2022-09-01T11:22:22;5.93;;;2.42;;
40945;SDS011;55635;50.264;11.918;2022-09-01T11:42:41;3.05;;;2.42;;
40945;SDS011;55635;50.264;11.918;2022-09-01T11:45:27;2.33;;;2.13;;
40945;SDS011;55635;50.264;11.918;2022-09-01T11:48:12;1.75;;;1.55;;
40945;SDS011;55635;50.264;11.918;2022-09-01T11:50:58;2.60;;;1.20;;
40945;SDS011;55635;50.264;11.918;2022-09-01T11:53:43;4.27;;;1.20;;
40945;SDS011;55635;50.264;11.918;2022-09-01T11:56:24;1.38;;;1.08;;
40945;SDS011;55635;50.264;11.918;2022-09-01T11:59:07;1.70;;;1.05;;
40945;SDS011;55635;50.264;11.918;2022-09-01T12:01:55;1.30;;;1.20;;
40945;SDS011;55635;50.264;11.918;2022-09-01T12:04:38;1.38;;;0.90;;
40945;SDS011;55635;50.264;11.918;2022-09-01T12:07:33;0.77;;;0.70;;
40945;SDS011;55635;50.264;11.918;2022-09-01T12:10:34;2.10;;;1.00;;
40945;SDS011;55635;50.264;11.918;2022-09-01T12:13:18;1.27;;;1.10;;
40945;SDS011;55635;50.264;11.918;2022-09-01T12:16:04;1.65;;;1.20;;
40945;SDS011;55635;50.264;11.918;2022-09-01T12:18:48;3.22;;;1.00;;
40945;SDS011;55635;50.264;11.918;2022-09-01T12:21:34;1.25;;;1.02;;
40945;SDS011;55635;50.264;11.918;2022-09-01T12:24:20;4.80;;;1.10;;
40945;SDS011;55635;50.264;11.918;2022-09-01T12:27:03;3.28;;;0.98;;
40945;SDS011;55635;50.264;11.918;2022-09-01T12:29:44;1.77;;;0.98;;
40945;SDS011;55635;50.264;11.918;2022-09-01T12:32:26;0.75;;;0.68;;
40945;SDS011;55635;50.264;11.918;2022-09-01T12:35:15;2.22;;;0.95;;
40945;SDS011;55635;50.264;11.918;2022-09-01T12:40:59;1.10;;;0.80;;
40945;SDS011;55635;50.264;11.918;2022-09-01T12:43:40;2.20;;;1.00;;
40945;SDS011;55635;50.264;11.918;2022-09-01T12:46:41;1.08;;;0.77;;
40945;SDS011;55635;50.264;11.918;2022-09-01T12:49:25;1.15;;;0.80;;
40945;SDS011;55635;50.264;11.918;2022-09-01T12:52:22;2.45;;;0.70;;
40945;SDS011;55635;50.264;11.918;2022-09-01T12:55:39;0.73;;;0.73;;
40945;SDS011;55635;50.264;11.918;2022-09-01T13:01:21;1.55;;;0.65;;
40945;SDS011;55635;50.264;11.918;2022-09-01T13:04:10;3.50;;;1.02;;
40945;SDS011;55635;50.264;11.918;2022-09-01T13:07:05;1.75;;;0.95;;
40945;SDS011;55635;50.264;11.918;2022-09-01T13:09:46;0.75;;;0.70;;
40945;SDS011;55635;50.264;11.918;2022-09-01T13:12:27;5.85;;;0.90;;
40945;SDS011;55635;50.264;11.918;2022-09-01T13:15:08;0.95;;;0.73;;
40945;SDS011;55635;50.264;11.918;2022-09-01T13:17:52;3.35;;;0.98;;
40945;SDS011;55635;50.264;11.918;2022-09-01T13:20:33;3.58;;;1.17;;
40945;SDS011;55635;50.264;11.918;2022-09-01T13:23:15;1.27;;;1.00;;
40945;SDS011;55635;50.264;11.918;2022-09-01T13:25:56;0.88;;;0.88;;
40945;SDS011;55635;50.264;11.918;2022-09-01T13:28:41;4.03;;;1.08;;
40945;SDS011;55635;50.264;11.918;2022-09-01T13:31:22;1.17;;;1.08;;
40945;SDS011;55635;50.264;11.918;2022-09-01T13:34:03;1.50;;;0.90;;
40945;SDS011;55635;50.264;11.918;2022-09-01T13:36:43;1.98;;;0.80;;
40945;SDS011;55635;50.264;11.918;2022-09-01T13:39:25;2.13;;;1.23;;
40945;SDS011;55635;50.264;11.918;2022-09-01T13:42:06;2.33;;;1.02;;
40945;SDS011;55635;50.264;11.918;2022-09-01T13:44:47;3.28;;;0.95;;
40945;SDS011;55635;50.264;11.918;2022-09-01T13:47:28;2.20;;;0.98;;
40945;SDS011;55635;50.264;11.918;2022-09-01T13:50:09;1.58;;;0.90;;
40945;SDS011;55635;50.264;11.918;2022-09-01T13:52:54;1.45;;;1.02;;
40945;SDS011;55635;50.264;11.918;2022-09-01T13:55:40;2.67;;;1.10;;
40945;SDS011;55635;50.264;11.918;2022-09-01T13:58:22;1.20;;;0.98;;
40945;SDS011;55635;50.264;11.918;2022-09-01T14:01:03;2.42;;;1.08;;
40945;SDS011;55635;50.264;11.918;2022-09-01T14:03:44;1.83;;;1.00;;
40945;SDS011;55635;50.264;11.918;2022-09-01T14:06:25;2.30;;;1.20;;
40945;SDS011;55635;50.264;11.918;2022-09-01T14:09:05;1.35;;;1.00;;
40945;SDS011;55635;50.264;11.918;2022-09-01T14:11:46;1.48;;;1.00;;
40945;SDS011;55635;50.264;11.918;2022-09-01T14:14:27;2.42;;;0.90;;
40945;SDS011;55635;50.264;11.918;2022-09-01T14:17:08;0.90;;;0.73;;
40945;SDS011;55635;50.264;11.918;2022-09-01T14:19:49;1.40;;;0.80;;
40945;SDS011;55635;50.264;11.918;2022-09-01T14:22:31;1.33;;;0.95;;
40945;SDS011;55635;50.264;11.918;2022-09-01T14:25:14;3.67;;;0.80;;
40945;SDS011;55635;50.264;11.918;2022-09-01T14:27:56;1.85;;;1.00;;
40945;SDS011;55635;50.264;11.918;2022-09-01T14:30:38;2.85;;;0.80;;
40945;SDS011;55635;50.264;11.918;2022-09-01T14:33:22;2.40;;;1.08;;
40945;SDS011;55635;50.264;11.918;2022-09-01T14:36:06;1.25;;;0.73;;
40945;SDS011;55635;50.264;11.918;2022-09-01T14:38:54;2.55;;;0.82;;
40945;SDS011;55635;50.264;11.918;2022-09-01T14:41:36;1.38;;;0.80;;
40945;SDS011;55635;50.264;11.918;2022-09-01T14:44:17;1.20;;;1.10;;
40945;SDS011;55635;50.264;11.918;2022-09-01T14:46:58;1.70;;;1.00;;
40945;SDS011;55635;50.264;11.918;2022-09-01T14:49:39;1.23;;;0.95;;
40945;SDS011;55635;50.264;11.918;2022-09-01T14:52:20;0.85;;;0.75;;
40945;SDS011;55635;50.264;11.918;2022-09-01T14:55:02;1.13;;;0.70;;
40945;SDS011;55635;50.264;11.918;2022-09-01T14:57:44;1.83;;;1.00;;
40945;SDS011;55635;50.264;11.918;2022-09-01T15:00:25;1.55;;;0.90;;
40945;SDS011;55635;50.264;11.918;2022-09-01T15:03:07;1.25;;;0.80;;
40945;SDS011;55635;50.264;11.918;2022-09-01T15:05:48;1.75;;;0.80;;
40945;SDS011;55635;50.264;11.918;2022-09-01T15:08:30;1.42;;;1.13;;
40945;SDS011;55635;50.264;11.918;2022-09-01T15:11:15;0.68;;;0.68;;
40945;SDS011;55635;50.264;11.918;2022-09-01T15:13:58;1.80;;;1.02;;
40945;SDS011;55635;50.264;11.918;2022-09-01T15:16:39;1.20;;;0.93;;
40945;SDS011;55635;50.264;11.918;2022-09-01T15:19:20;0.88;;;0.88;;
40945;SDS011;55635;50.264;11.918;2022-09-01T15:22:01;1.35;;;0.90;;
40945;SDS011;55635;50.264;11.918;2022-09-01T15:24:43;1.60;;;0.85;;
40945;SDS011;55635;50.264;11.918;2022-09-01T15:27:33;2.45;;;1.17;;
40945;SDS011;55635;50.264;11.918;2022-09-01T15:30:14;2.08;;;0.90;;
40945;SDS011;55635;50.264;11.918;2022-09-01T15:32:56;1.63;;;0.82;;
40945;SDS011;55635;50.264;11.918;2022-09-01T15:35:37;1.58;;;0.98;;
40945;SDS011;55635;50.264;11.918;2022-09-01T15:38:18;1.45;;;0.77;;
40945;SDS011;55635;50.264;11.918;2022-09-01T15:40:59;2.47;;;1.33;;
40945;SDS011;55635;50.264;11.918;2022-09-01T15:43:40;1.35;;;0.98;;
40945;SDS011;55635;50.264;11.918;2022-09-01T15:46:22;1.27;;;1.17;;
40945;SDS011;55635;50.264;11.918;2022-09-01T15:49:10;1.27;;;1.00;;
40945;SDS011;55635;50.264;11.918;2022-09-01T15:51:52;1.55;;;0.75;;
40945;SDS011;55635;50.264;11.918;2022-09-01T15:54:36;2.08;;;1.23;;
40945;SDS011;55635;50.264;11.918;2022-09-01T15:57:18;1.58;;;0.88;;
40945;SDS011;55635;50.264;11.918;2022-09-01T15:59:58;3.45;;;1.48;;
40945;SDS011;55635;50.264;11.918;2022-09-01T16:02:39;2.33;;;1.02;;
40945;SDS011;55635;50.264;11.918;2022-09-01T16:05:21;1.60;;;0.93;;
40945;SDS011;55635;50.264;11.918;2022-09-01T16:08:04;2.65;;;1.00;;
40945;SDS011;55635;50.264;11.918;2022-09-01T16:10:50;1.00;;;0.90;;
40945;SDS011;55635;50.264;11.918;2022-09-01T16:13:31;1.30;;;0.80;;
40945;SDS011;55635;50.264;11.918;2022-09-01T16:22:20;2.17;;;0.98;;
40945;SDS011;55635;50.264;11.918;2022-09-01T16:25:29;2.25;;;0.93;;
40945;SDS011;55635;50.264;11.918;2022-09-01T16:28:23;1.13;;;0.88;;
40945;SDS011;55635;50.264;11.918;2022-09-01T16:31:28;2.00;;;0.93;;
40945;SDS011;55635;50.264;11.918;2022-09-01T16:34:14;3.95;;;1.30;;
40945;SDS011;55635;50.264;11.918;2022-09-01T16:37:03;2.28;;;1.00;;
40945;SDS011;55635;50.264;11.918;2022-09-01T16:40:35;2.35;;;0.80;;
40945;SDS011;55635;50.264;11.918;2022-09-01T16:46:11;2.40;;;0.90;;
40945;SDS011;55635;50.264;11.918;2022-09-01T16:52:08;1.20;;;1.10;;
40945;SDS011;55635;50.264;11.918;2022-09-01T16:55:28;3.53;;;1.30;;
40945;SDS011;55635;50.264;11.918;2022-09-01T17:04:47;2.00;;;0.90;;
40945;SDS011;55635;50.264;11.918;2022-09-01T17:11:07;3.03;;;0.85;;
40945;SDS011;55635;50.264;11.918;2022-09-01T17:13:57;3.38;;;0.90;;
40945;SDS011;55635;50.264;11.918;2022-09-01T17:16:40;3.80;;;0.70;;
40945;SDS011;55635;50.264;11.918;2022-09-01T17:19:24;1.65;;;0.85;;
40945;SDS011;55635;50.264;11.918;2022-09-01T17:22:07;3.35;;;0.95;;
40945;SDS011;55635;50.264;11.918;2022-09-01T17:24:57;1.08;;;0.68;;
40945;SDS011;55635;50.264;11.918;2022-09-01T17:30:41;0.85;;;0.82;;
40945;SDS011;55635;50.264;11.918;2022-09-01T17:36:55;2.42;;;0.90;;
40945;SDS011;55635;50.264;11.918;2022-09-01T17:40:15;3.90;;;1.08;;
40945;SDS011;55635;50.264;11.918;2022-09-01T17:43:31;1.65;;;1.02;;
40945;SDS011;55635;50.264;11.918;2022-09-01T17:49:22;1.80;;;0.70;;
40945;SDS011;55635;50.264;11.918;2022-09-01T17:52:13;5.18;;;0.93;;
40945;SDS011;55635;50.264;11.918;2022-09-01T17:55:16;2.35;;;0.85;;
40945;SDS011;55635;50.264;11.918;2022-09-01T17:58:10;0.85;;;0.70;;
40945;SDS011;55635;50.264;11.918;2022-09-01T18:01:21;4.43;;;1.05;;
40945;SDS011;55635;50.264;11.918;2022-09-01T18:04:09;1.00;;;0.73;;
40945;SDS011;55635;50.264;11.918;2022-09-01T18:12:39;3.63;;;1.02;;